sensor_id;sensor_type;location;lat;lon;timestamp;P1;durP1;ratioP1;P2;durP2;ratioP2
75261;SDS011;63859;51.064;4.580;2024-01-16T00:00:51;17.67;;;3.63;;
75261;SDS011;63859;51.064;4.580;2024-01-16T00:03:16;11.40;;;4.70;;
75261;SDS011;63859;51.064;4.580;2024-01-16T00:05:42;10.37;;;3.90;;
75261;SDS011;63859;51.064;4.580;2024-01-16T00:08:08;14.90;;;4.17;;
75261;SDS011;63859;51.064;4.580;2024-01-16T00:10:33;19.13;;;4.70;;
75261;SDS011;63859;51.064;4.580;2024-01-16T00:12:59;14.00;;;3.97;;
75261;SDS011;63859;51.064;4.580;2024-01-16T00:15:25;11.67;;;4.40;;
75261;SDS011;63859;51.064;4.580;2024-01-16T00:17:50;14.17;;;4.93;;
75261;SDS011;63859;51.064;4.580;2024-01-16T00:20:16;11.53;;;4.23;;
75261;SDS011;63859;51.064;4.580;2024-01-16T00:22:42;9.50;;;4.57;;
75261;SDS011;63859;51.064;4.580;2024-01-16T00:25:08;22.87;;;5.30;;
75261;SDS011;63859;51.064;4.580;2024-01-16T00:27:33;13.77;;;4.97;;
75261;SDS011;63859;51.064;4.580;2024-01-16T00:29:59;16.20;;;4.67;;
75261;SDS011;63859;51.064;4.580;2024-01-16T00:32:25;21.63;;;4.70;;
75261;SDS011;63859;51.064;4.580;2024-01-16T00:34:51;10.10;;;4.20;;
75261;SDS011;63859;51.064;4.580;2024-01-16T00:37:16;12.90;;;4.07;;
75261;SDS011;63859;51.064;4.580;2024-01-16T00:39:42;13.57;;;4.87;;
75261;SDS011;63859;51.064;4.580;2024-01-16T00:42:08;15.67;;;4.67;;
75261;SDS011;63859;51.064;4.580;2024-01-16T00:44:34;21.37;;;4.93;;
75261;SDS011;63859;51.064;4.580;2024-01-16T00:47:00;14.00;;;4.30;;
75261;SDS011;63859;51.064;4.580;2024-01-16T00:49:26;10.63;;;4.17;;
75261;SDS011;63859;51.064;4.580;2024-01-16T00:51:53;14.70;;;4.60;;
75261;SDS011;63859;51.064;4.580;2024-01-16T00:54:19;16.50;;;4.20;;
75261;SDS011;63859;51.064;4.580;2024-01-16T00:56:45;22.23;;;4.60;;
75261;SDS011;63859;51.064;4.580;2024-01-16T00:59:10;10.23;;;4.30;;
75261;SDS011;63859;51.064;4.580;2024-01-16T01:01:39;14.40;;;4.57;;
75261;SDS011;63859;51.064;4.580;2024-01-16T01:04:04;7.73;;;3.73;;
75261;SDS011;63859;51.064;4.580;2024-01-16T01:06:30;8.67;;;4.27;;
75261;SDS011;63859;51.064;4.580;2024-01-16T01:08:56;18.03;;;4.20;;
75261;SDS011;63859;51.064;4.580;2024-01-16T01:11:22;14.90;;;4.10;;
75261;SDS011;63859;51.064;4.580;2024-01-16T01:13:47;13.83;;;4.77;;
75261;SDS011;63859;51.064;4.580;2024-01-16T01:16:13;14.23;;;4.50;;
75261;SDS011;63859;51.064;4.580;2024-01-16T01:18:38;17.30;;;3.70;;
75261;SDS011;63859;51.064;4.580;2024-01-16T01:21:04;10.57;;;3.73;;
75261;SDS011;63859;51.064;4.580;2024-01-16T01:23:30;5.43;;;3.23;;
75261;SDS011;63859;51.064;4.580;2024-01-16T01:25:56;15.17;;;3.77;;
75261;SDS011;63859;51.064;4.580;2024-01-16T01:28:21;16.53;;;3.63;;
75261;SDS011;63859;51.064;4.580;2024-01-16T01:30:47;9.93;;;3.37;;
75261;SDS011;63859;51.064;4.580;2024-01-16T01:33:13;5.97;;;2.73;;
75261;SDS011;63859;51.064;4.580;2024-01-16T01:35:38;11.20;;;3.27;;
75261;SDS011;63859;51.064;4.580;2024-01-16T01:38:04;11.17;;;3.87;;
75261;SDS011;63859;51.064;4.580;2024-01-16T01:40:31;11.20;;;2.43;;
75261;SDS011;63859;51.064;4.580;2024-01-16T01:42:57;10.83;;;3.50;;
75261;SDS011;63859;51.064;4.580;2024-01-16T01:45:23;13.43;;;3.37;;
75261;SDS011;63859;51.064;4.580;2024-01-16T01:47:48;12.23;;;3.87;;
75261;SDS011;63859;51.064;4.580;2024-01-16T01:50:14;10.60;;;3.53;;
75261;SDS011;63859;51.064;4.580;2024-01-16T01:52:40;17.80;;;4.00;;
75261;SDS011;63859;51.064;4.580;2024-01-16T01:55:07;15.00;;;3.40;;
75261;SDS011;63859;51.064;4.580;2024-01-16T01:57:36;11.60;;;3.50;;
75261;SDS011;63859;51.064;4.580;2024-01-16T02:00:03;16.57;;;4.23;;
75261;SDS011;63859;51.064;4.580;2024-01-16T02:02:29;12.57;;;4.00;;
75261;SDS011;63859;51.064;4.580;2024-01-16T02:04:57;20.73;;;4.10;;
75261;SDS011;63859;51.064;4.580;2024-01-16T02:07:23;8.67;;;3.33;;
75261;SDS011;63859;51.064;4.580;2024-01-16T02:09:50;10.57;;;3.70;;
75261;SDS011;63859;51.064;4.580;2024-01-16T02:12:16;15.47;;;4.30;;
75261;SDS011;63859;51.064;4.580;2024-01-16T02:14:41;8.03;;;3.60;;
75261;SDS011;63859;51.064;4.580;2024-01-16T02:17:07;9.33;;;3.73;;
75261;SDS011;63859;51.064;4.580;2024-01-16T02:19:33;12.27;;;4.07;;
75261;SDS011;63859;51.064;4.580;2024-01-16T02:21:59;9.33;;;3.67;;
75261;SDS011;63859;51.064;4.580;2024-01-16T02:24:28;15.03;;;3.70;;
75261;SDS011;63859;51.064;4.580;2024-01-16T02:26:54;11.70;;;4.07;;
75261;SDS011;63859;51.064;4.580;2024-01-16T02:29:20;14.47;;;3.67;;
75261;SDS011;63859;51.064;4.580;2024-01-16T02:31:46;12.67;;;3.70;;
75261;SDS011;63859;51.064;4.580;2024-01-16T02:34:11;21.47;;;4.90;;
75261;SDS011;63859;51.064;4.580;2024-01-16T02:36:38;14.27;;;4.17;;
75261;SDS011;63859;51.064;4.580;2024-01-16T02:39:04;11.40;;;3.87;;
75261;SDS011;63859;51.064;4.580;2024-01-16T02:41:31;15.00;;;3.93;;
75261;SDS011;63859;51.064;4.580;2024-01-16T02:43:57;12.50;;;3.87;;
75261;SDS011;63859;51.064;4.580;2024-01-16T02:46:22;7.77;;;3.77;;
75261;SDS011;63859;51.064;4.580;2024-01-16T02:48:48;13.13;;;3.83;;
75261;SDS011;63859;51.064;4.580;2024-01-16T02:51:14;9.80;;;3.77;;
75261;SDS011;63859;51.064;4.580;2024-01-16T02:53:40;9.50;;;3.57;;
75261;SDS011;63859;51.064;4.580;2024-01-16T02:56:07;16.33;;;3.67;;
75261;SDS011;63859;51.064;4.580;2024-01-16T02:58:34;9.93;;;3.80;;
75261;SDS011;63859;51.064;4.580;2024-01-16T03:01:00;12.90;;;3.40;;
75261;SDS011;63859;51.064;4.580;2024-01-16T03:03:26;14.50;;;4.87;;
75261;SDS011;63859;51.064;4.580;2024-01-16T03:05:52;7.67;;;4.07;;
75261;SDS011;63859;51.064;4.580;2024-01-16T03:08:18;8.03;;;3.60;;
75261;SDS011;63859;51.064;4.580;2024-01-16T03:10:44;12.20;;;3.90;;
75261;SDS011;63859;51.064;4.580;2024-01-16T03:13:10;9.77;;;3.80;;
75261;SDS011;63859;51.064;4.580;2024-01-16T03:15:35;11.53;;;3.63;;
75261;SDS011;63859;51.064;4.580;2024-01-16T03:18:01;13.00;;;3.63;;
75261;SDS011;63859;51.064;4.580;2024-01-16T03:20:28;12.70;;;3.83;;
75261;SDS011;63859;51.064;4.580;2024-01-16T03:22:53;9.20;;;4.00;;
75261;SDS011;63859;51.064;4.580;2024-01-16T03:25:19;7.90;;;3.47;;
75261;SDS011;63859;51.064;4.580;2024-01-16T03:27:46;9.40;;;3.70;;
75261;SDS011;63859;51.064;4.580;2024-01-16T03:30:12;9.53;;;3.53;;
75261;SDS011;63859;51.064;4.580;2024-01-16T03:32:38;9.90;;;3.93;;
75261;SDS011;63859;51.064;4.580;2024-01-16T03:35:04;6.30;;;3.57;;
75261;SDS011;63859;51.064;4.580;2024-01-16T03:37:31;12.80;;;3.83;;
75261;SDS011;63859;51.064;4.580;2024-01-16T03:39:57;9.17;;;3.97;;
75261;SDS011;63859;51.064;4.580;2024-01-16T03:42:22;11.90;;;3.60;;
75261;SDS011;63859;51.064;4.580;2024-01-16T03:44:49;11.13;;;3.53;;
75261;SDS011;63859;51.064;4.580;2024-01-16T03:47:14;10.97;;;4.13;;
75261;SDS011;63859;51.064;4.580;2024-01-16T03:49:41;13.07;;;3.93;;
75261;SDS011;63859;51.064;4.580;2024-01-16T03:52:07;10.17;;;3.90;;
75261;SDS011;63859;51.064;4.580;2024-01-16T03:54:33;12.47;;;4.57;;
75261;SDS011;63859;51.064;4.580;2024-01-16T03:56:58;13.57;;;3.77;;
75261;SDS011;63859;51.064;4.580;2024-01-16T03:59:24;8.47;;;4.07;;
75261;SDS011;63859;51.064;4.580;2024-01-16T04:01:49;16.10;;;3.70;;
75261;SDS011;63859;51.064;4.580;2024-01-16T04:04:15;10.07;;;4.00;;
75261;SDS011;63859;51.064;4.580;2024-01-16T04:06:42;13.80;;;3.90;;
75261;SDS011;63859;51.064;4.580;2024-01-16T04:09:07;9.50;;;3.57;;
75261;SDS011;63859;51.064;4.580;2024-01-16T04:11:34;13.40;;;4.43;;
75261;SDS011;63859;51.064;4.580;2024-01-16T04:14:01;6.20;;;3.43;;
75261;SDS011;63859;51.064;4.580;2024-01-16T04:16:27;7.63;;;3.60;;
75261;SDS011;63859;51.064;4.580;2024-01-16T04:18:52;13.10;;;3.90;;
75261;SDS011;63859;51.064;4.580;2024-01-16T04:21:18;10.23;;;4.27;;
75261;SDS011;63859;51.064;4.580;2024-01-16T04:23:44;14.10;;;4.20;;
75261;SDS011;63859;51.064;4.580;2024-01-16T04:26:10;15.40;;;4.10;;
75261;SDS011;63859;51.064;4.580;2024-01-16T04:28:35;6.47;;;3.40;;
75261;SDS011;63859;51.064;4.580;2024-01-16T04:31:04;12.07;;;4.10;;
75261;SDS011;63859;51.064;4.580;2024-01-16T04:33:30;10.53;;;4.00;;
75261;SDS011;63859;51.064;4.580;2024-01-16T04:35:56;12.50;;;4.20;;
75261;SDS011;63859;51.064;4.580;2024-01-16T04:38:21;11.70;;;3.87;;
75261;SDS011;63859;51.064;4.580;2024-01-16T04:40:47;11.10;;;4.00;;
75261;SDS011;63859;51.064;4.580;2024-01-16T04:43:13;10.90;;;4.33;;
75261;SDS011;63859;51.064;4.580;2024-01-16T04:45:38;13.23;;;4.30;;
75261;SDS011;63859;51.064;4.580;2024-01-16T04:48:04;10.63;;;4.17;;
75261;SDS011;63859;51.064;4.580;2024-01-16T04:50:30;15.37;;;4.90;;
75261;SDS011;63859;51.064;4.580;2024-01-16T04:52:59;18.77;;;5.03;;
75261;SDS011;63859;51.064;4.580;2024-01-16T04:55:25;14.27;;;3.87;;
75261;SDS011;63859;51.064;4.580;2024-01-16T04:57:55;13.47;;;4.80;;
75261;SDS011;63859;51.064;4.580;2024-01-16T05:00:21;17.60;;;4.97;;
75261;SDS011;63859;51.064;4.580;2024-01-16T05:02:47;15.03;;;4.33;;
75261;SDS011;63859;51.064;4.580;2024-01-16T05:05:13;14.27;;;5.00;;
75261;SDS011;63859;51.064;4.580;2024-01-16T05:07:39;11.33;;;4.67;;
75261;SDS011;63859;51.064;4.580;2024-01-16T05:10:05;15.03;;;5.60;;
75261;SDS011;63859;51.064;4.580;2024-01-16T05:12:32;13.83;;;4.07;;
75261;SDS011;63859;51.064;4.580;2024-01-16T05:14:58;10.87;;;4.73;;
75261;SDS011;63859;51.064;4.580;2024-01-16T05:17:23;11.17;;;4.97;;
75261;SDS011;63859;51.064;4.580;2024-01-16T05:19:49;10.93;;;4.50;;
75261;SDS011;63859;51.064;4.580;2024-01-16T05:22:15;10.17;;;4.73;;
75261;SDS011;63859;51.064;4.580;2024-01-16T05:24:41;16.47;;;4.80;;
75261;SDS011;63859;51.064;4.580;2024-01-16T05:27:06;15.70;;;5.10;;
75261;SDS011;63859;51.064;4.580;2024-01-16T05:29:32;9.77;;;4.87;;
75261;SDS011;63859;51.064;4.580;2024-01-16T05:31:58;16.40;;;5.17;;
75261;SDS011;63859;51.064;4.580;2024-01-16T05:34:23;14.00;;;4.53;;
75261;SDS011;63859;51.064;4.580;2024-01-16T05:36:49;14.43;;;5.00;;
75261;SDS011;63859;51.064;4.580;2024-01-16T05:39:15;11.90;;;5.27;;
75261;SDS011;63859;51.064;4.580;2024-01-16T05:41:42;11.80;;;5.60;;
75261;SDS011;63859;51.064;4.580;2024-01-16T05:44:08;11.23;;;5.70;;
75261;SDS011;63859;51.064;4.580;2024-01-16T05:46:33;14.77;;;5.10;;
75261;SDS011;63859;51.064;4.580;2024-01-16T05:48:59;12.07;;;4.97;;
75261;SDS011;63859;51.064;4.580;2024-01-16T05:51:26;12.43;;;4.57;;
75261;SDS011;63859;51.064;4.580;2024-01-16T05:53:53;15.23;;;5.17;;
75261;SDS011;63859;51.064;4.580;2024-01-16T05:56:19;11.20;;;5.10;;
75261;SDS011;63859;51.064;4.580;2024-01-16T05:58:45;13.10;;;5.20;;
75261;SDS011;63859;51.064;4.580;2024-01-16T06:01:10;12.00;;;4.80;;
75261;SDS011;63859;51.064;4.580;2024-01-16T06:03:38;11.20;;;4.97;;
75261;SDS011;63859;51.064;4.580;2024-01-16T06:06:04;11.13;;;4.70;;
75261;SDS011;63859;51.064;4.580;2024-01-16T06:08:30;17.00;;;5.57;;
75261;SDS011;63859;51.064;4.580;2024-01-16T06:10:56;14.73;;;5.17;;
75261;SDS011;63859;51.064;4.580;2024-01-16T06:13:22;16.43;;;5.20;;
75261;SDS011;63859;51.064;4.580;2024-01-16T06:15:47;15.97;;;5.97;;
75261;SDS011;63859;51.064;4.580;2024-01-16T06:18:13;15.90;;;4.90;;
75261;SDS011;63859;51.064;4.580;2024-01-16T06:20:39;13.43;;;5.70;;
75261;SDS011;63859;51.064;4.580;2024-01-16T06:23:04;7.77;;;4.40;;
75261;SDS011;63859;51.064;4.580;2024-01-16T06:25:30;9.07;;;4.67;;
75261;SDS011;63859;51.064;4.580;2024-01-16T06:27:56;12.93;;;5.10;;
75261;SDS011;63859;51.064;4.580;2024-01-16T06:30:22;12.40;;;4.83;;
75261;SDS011;63859;51.064;4.580;2024-01-16T06:32:48;17.07;;;5.30;;
75261;SDS011;63859;51.064;4.580;2024-01-16T06:35:15;13.43;;;4.87;;
75261;SDS011;63859;51.064;4.580;2024-01-16T06:37:40;15.80;;;6.33;;
75261;SDS011;63859;51.064;4.580;2024-01-16T06:40:06;11.37;;;4.83;;
75261;SDS011;63859;51.064;4.580;2024-01-16T06:42:32;9.73;;;4.97;;
75261;SDS011;63859;51.064;4.580;2024-01-16T06:44:58;9.47;;;5.13;;
75261;SDS011;63859;51.064;4.580;2024-01-16T06:47:24;12.57;;;5.60;;
75261;SDS011;63859;51.064;4.580;2024-01-16T06:49:50;14.30;;;4.37;;
75261;SDS011;63859;51.064;4.580;2024-01-16T06:52:15;16.73;;;4.80;;
75261;SDS011;63859;51.064;4.580;2024-01-16T06:54:41;9.87;;;5.20;;
75261;SDS011;63859;51.064;4.580;2024-01-16T06:57:06;11.93;;;5.10;;
75261;SDS011;63859;51.064;4.580;2024-01-16T06:59:32;13.03;;;5.40;;
75261;SDS011;63859;51.064;4.580;2024-01-16T07:01:58;10.57;;;5.53;;
75261;SDS011;63859;51.064;4.580;2024-01-16T07:04:24;16.53;;;5.90;;
75261;SDS011;63859;51.064;4.580;2024-01-16T07:06:49;13.60;;;5.60;;
75261;SDS011;63859;51.064;4.580;2024-01-16T07:09:15;12.27;;;6.23;;
75261;SDS011;63859;51.064;4.580;2024-01-16T07:11:43;11.23;;;5.50;;
75261;SDS011;63859;51.064;4.580;2024-01-16T07:14:09;11.73;;;4.90;;
75261;SDS011;63859;51.064;4.580;2024-01-16T07:16:35;12.97;;;5.47;;
75261;SDS011;63859;51.064;4.580;2024-01-16T07:19:01;13.10;;;5.50;;
75261;SDS011;63859;51.064;4.580;2024-01-16T07:21:27;16.20;;;5.80;;
75261;SDS011;63859;51.064;4.580;2024-01-16T07:23:53;14.90;;;5.60;;
75261;SDS011;63859;51.064;4.580;2024-01-16T07:26:19;17.97;;;6.00;;
75261;SDS011;63859;51.064;4.580;2024-01-16T07:28:45;16.70;;;5.70;;
75261;SDS011;63859;51.064;4.580;2024-01-16T07:31:13;11.27;;;5.43;;
75261;SDS011;63859;51.064;4.580;2024-01-16T07:33:39;15.80;;;6.40;;
75261;SDS011;63859;51.064;4.580;2024-01-16T07:36:05;14.20;;;5.50;;
75261;SDS011;63859;51.064;4.580;2024-01-16T07:38:33;12.03;;;4.97;;
75261;SDS011;63859;51.064;4.580;2024-01-16T07:40:58;12.97;;;5.30;;
75261;SDS011;63859;51.064;4.580;2024-01-16T07:43:24;11.67;;;5.17;;
75261;SDS011;63859;51.064;4.580;2024-01-16T07:45:50;18.13;;;5.40;;
75261;SDS011;63859;51.064;4.580;2024-01-16T07:48:16;16.70;;;4.97;;
75261;SDS011;63859;51.064;4.580;2024-01-16T07:50:41;16.40;;;5.93;;
75261;SDS011;63859;51.064;4.580;2024-01-16T07:53:07;13.67;;;5.20;;
75261;SDS011;63859;51.064;4.580;2024-01-16T07:55:33;16.40;;;6.07;;
75261;SDS011;63859;51.064;4.580;2024-01-16T07:57:58;11.73;;;5.30;;
75261;SDS011;63859;51.064;4.580;2024-01-16T08:00:24;14.83;;;5.60;;
75261;SDS011;63859;51.064;4.580;2024-01-16T08:02:52;15.63;;;6.00;;
75261;SDS011;63859;51.064;4.580;2024-01-16T08:05:18;18.27;;;5.90;;
75261;SDS011;63859;51.064;4.580;2024-01-16T08:07:46;19.00;;;5.60;;
75261;SDS011;63859;51.064;4.580;2024-01-16T08:10:12;13.20;;;5.70;;
75261;SDS011;63859;51.064;4.580;2024-01-16T08:12:38;18.10;;;6.90;;
75261;SDS011;63859;51.064;4.580;2024-01-16T08:15:04;16.57;;;5.87;;
75261;SDS011;63859;51.064;4.580;2024-01-16T08:17:32;20.17;;;5.47;;
75261;SDS011;63859;51.064;4.580;2024-01-16T08:19:58;13.73;;;6.10;;
75261;SDS011;63859;51.064;4.580;2024-01-16T08:22:24;11.90;;;5.60;;
75261;SDS011;63859;51.064;4.580;2024-01-16T08:24:50;14.20;;;6.13;;
75261;SDS011;63859;51.064;4.580;2024-01-16T08:27:15;18.40;;;6.13;;
75261;SDS011;63859;51.064;4.580;2024-01-16T08:29:42;14.90;;;5.70;;
75261;SDS011;63859;51.064;4.580;2024-01-16T08:32:07;13.10;;;6.87;;
75261;SDS011;63859;51.064;4.580;2024-01-16T08:34:33;15.33;;;6.40;;
75261;SDS011;63859;51.064;4.580;2024-01-16T08:36:59;12.37;;;6.07;;
75261;SDS011;63859;51.064;4.580;2024-01-16T08:39:25;14.70;;;5.77;;
75261;SDS011;63859;51.064;4.580;2024-01-16T08:41:52;16.03;;;6.40;;
75261;SDS011;63859;51.064;4.580;2024-01-16T08:44:19;13.83;;;6.77;;
75261;SDS011;63859;51.064;4.580;2024-01-16T08:46:44;12.03;;;5.80;;
75261;SDS011;63859;51.064;4.580;2024-01-16T08:49:11;13.83;;;6.60;;
75261;SDS011;63859;51.064;4.580;2024-01-16T08:51:38;13.17;;;6.27;;
75261;SDS011;63859;51.064;4.580;2024-01-16T08:54:06;17.03;;;6.40;;
75261;SDS011;63859;51.064;4.580;2024-01-16T08:56:32;18.03;;;5.70;;
75261;SDS011;63859;51.064;4.580;2024-01-16T08:58:57;9.23;;;5.53;;
75261;SDS011;63859;51.064;4.580;2024-01-16T09:01:23;12.13;;;6.10;;
75261;SDS011;63859;51.064;4.580;2024-01-16T09:03:49;26.73;;;10.57;;
75261;SDS011;63859;51.064;4.580;2024-01-16T09:06:15;18.77;;;9.17;;
75261;SDS011;63859;51.064;4.580;2024-01-16T09:08:40;18.17;;;9.37;;
75261;SDS011;63859;51.064;4.580;2024-01-16T09:11:06;12.90;;;6.43;;
75261;SDS011;63859;51.064;4.580;2024-01-16T09:13:32;13.83;;;6.10;;
75261;SDS011;63859;51.064;4.580;2024-01-16T09:15:58;10.53;;;6.70;;
75261;SDS011;63859;51.064;4.580;2024-01-16T09:18:24;15.43;;;7.47;;
75261;SDS011;63859;51.064;4.580;2024-01-16T09:20:50;14.50;;;6.37;;
75261;SDS011;63859;51.064;4.580;2024-01-16T09:23:15;12.43;;;7.40;;
75261;SDS011;63859;51.064;4.580;2024-01-16T09:25:41;17.03;;;8.00;;
75261;SDS011;63859;51.064;4.580;2024-01-16T09:28:07;17.20;;;6.73;;
75261;SDS011;63859;51.064;4.580;2024-01-16T09:30:33;11.87;;;5.87;;
75261;SDS011;63859;51.064;4.580;2024-01-16T09:32:58;16.57;;;5.60;;
75261;SDS011;63859;51.064;4.580;2024-01-16T09:35:24;13.67;;;6.27;;
75261;SDS011;63859;51.064;4.580;2024-01-16T09:37:49;12.07;;;5.80;;
75261;SDS011;63859;51.064;4.580;2024-01-16T09:40:16;12.30;;;5.80;;
75261;SDS011;63859;51.064;4.580;2024-01-16T09:42:42;13.27;;;6.33;;
75261;SDS011;63859;51.064;4.580;2024-01-16T09:45:08;15.87;;;6.10;;
75261;SDS011;63859;51.064;4.580;2024-01-16T09:47:34;14.47;;;5.27;;
75261;SDS011;63859;51.064;4.580;2024-01-16T09:50:01;13.97;;;5.27;;
75261;SDS011;63859;51.064;4.580;2024-01-16T09:52:28;15.30;;;5.67;;
75261;SDS011;63859;51.064;4.580;2024-01-16T09:54:54;13.23;;;5.20;;
75261;SDS011;63859;51.064;4.580;2024-01-16T09:57:22;10.30;;;5.43;;
75261;SDS011;63859;51.064;4.580;2024-01-16T09:59:51;12.20;;;5.27;;
75261;SDS011;63859;51.064;4.580;2024-01-16T10:02:17;9.67;;;5.23;;
75261;SDS011;63859;51.064;4.580;2024-01-16T10:04:45;14.43;;;5.27;;
75261;SDS011;63859;51.064;4.580;2024-01-16T10:07:12;8.00;;;4.33;;
75261;SDS011;63859;51.064;4.580;2024-01-16T10:09:39;12.77;;;5.57;;
75261;SDS011;63859;51.064;4.580;2024-01-16T10:12:05;14.77;;;6.17;;
75261;SDS011;63859;51.064;4.580;2024-01-16T10:14:32;14.93;;;5.60;;
75261;SDS011;63859;51.064;4.580;2024-01-16T10:16:59;10.33;;;4.47;;
75261;SDS011;63859;51.064;4.580;2024-01-16T10:19:30;13.73;;;5.23;;
75261;SDS011;63859;51.064;4.580;2024-01-16T10:22:03;8.63;;;4.50;;
75261;SDS011;63859;51.064;4.580;2024-01-16T10:24:29;10.17;;;4.23;;
75261;SDS011;63859;51.064;4.580;2024-01-16T10:26:59;12.97;;;5.23;;
75261;SDS011;63859;51.064;4.580;2024-01-16T10:29:26;10.87;;;5.47;;
75261;SDS011;63859;51.064;4.580;2024-01-16T10:31:52;14.20;;;4.60;;
75261;SDS011;63859;51.064;4.580;2024-01-16T10:34:21;11.83;;;4.50;;
75261;SDS011;63859;51.064;4.580;2024-01-16T10:36:49;8.40;;;4.63;;
75261;SDS011;63859;51.064;4.580;2024-01-16T10:39:16;8.37;;;3.97;;
75261;SDS011;63859;51.064;4.580;2024-01-16T10:41:41;12.63;;;4.67;;
75261;SDS011;63859;51.064;4.580;2024-01-16T10:44:18;11.77;;;4.60;;
75261;SDS011;63859;51.064;4.580;2024-01-16T10:46:44;16.80;;;4.77;;
75261;SDS011;63859;51.064;4.580;2024-01-16T10:49:09;7.63;;;4.27;;
75261;SDS011;63859;51.064;4.580;2024-01-16T10:51:35;9.23;;;4.67;;
75261;SDS011;63859;51.064;4.580;2024-01-16T10:54:04;10.90;;;4.80;;
75261;SDS011;63859;51.064;4.580;2024-01-16T10:56:36;9.73;;;4.20;;
75261;SDS011;63859;51.064;4.580;2024-01-16T11:01:36;11.23;;;4.70;;
75261;SDS011;63859;51.064;4.580;2024-01-16T11:04:03;7.40;;;3.67;;
75261;SDS011;63859;51.064;4.580;2024-01-16T11:06:30;11.97;;;4.10;;
75261;SDS011;63859;51.064;4.580;2024-01-16T11:08:57;7.77;;;3.97;;
75261;SDS011;63859;51.064;4.580;2024-01-16T11:11:23;10.03;;;4.20;;
75261;SDS011;63859;51.064;4.580;2024-01-16T11:13:51;12.23;;;4.87;;
75261;SDS011;63859;51.064;4.580;2024-01-16T11:16:17;9.23;;;4.30;;
75261;SDS011;63859;51.064;4.580;2024-01-16T11:18:44;9.43;;;4.30;;
75261;SDS011;63859;51.064;4.580;2024-01-16T11:21:10;8.10;;;4.30;;
75261;SDS011;63859;51.064;4.580;2024-01-16T11:23:38;13.37;;;4.50;;
75261;SDS011;63859;51.064;4.580;2024-01-16T11:26:50;13.90;;;5.03;;
75261;SDS011;63859;51.064;4.580;2024-01-16T11:28:57;11.50;;;4.83;;
75261;SDS011;63859;51.064;4.580;2024-01-16T11:33:53;10.00;;;4.57;;
75261;SDS011;63859;51.064;4.580;2024-01-16T11:36:52;11.47;;;4.53;;
75261;SDS011;63859;51.064;4.580;2024-01-16T11:39:19;7.67;;;3.93;;
75261;SDS011;63859;51.064;4.580;2024-01-16T11:41:50;11.57;;;4.57;;
75261;SDS011;63859;51.064;4.580;2024-01-16T11:47:15;7.17;;;3.50;;
75261;SDS011;63859;51.064;4.580;2024-01-16T11:49:49;11.27;;;4.03;;
75261;SDS011;63859;51.064;4.580;2024-01-16T11:52:38;11.10;;;3.97;;
75261;SDS011;63859;51.064;4.580;2024-01-16T12:00:35;3.57;;;2.70;;
75261;SDS011;63859;51.064;4.580;2024-01-16T12:03:04;8.20;;;3.53;;
75261;SDS011;63859;51.064;4.580;2024-01-16T12:05:31;7.27;;;3.97;;
75261;SDS011;63859;51.064;4.580;2024-01-16T12:07:57;14.13;;;4.67;;
75261;SDS011;63859;51.064;4.580;2024-01-16T12:10:23;7.83;;;3.20;;
75261;SDS011;63859;51.064;4.580;2024-01-16T12:12:50;8.77;;;3.73;;
75261;SDS011;63859;51.064;4.580;2024-01-16T12:15:21;11.70;;;4.17;;
75261;SDS011;63859;51.064;4.580;2024-01-16T12:17:57;6.33;;;3.17;;
75261;SDS011;63859;51.064;4.580;2024-01-16T12:20:28;8.97;;;4.40;;
75261;SDS011;63859;51.064;4.580;2024-01-16T12:23:04;6.83;;;3.07;;
75261;SDS011;63859;51.064;4.580;2024-01-16T12:25:34;8.27;;;3.40;;
75261;SDS011;63859;51.064;4.580;2024-01-16T12:30:32;11.47;;;3.83;;
75261;SDS011;63859;51.064;4.580;2024-01-16T12:33:03;7.13;;;3.30;;
75261;SDS011;63859;51.064;4.580;2024-01-16T12:35:45;6.43;;;2.87;;
75261;SDS011;63859;51.064;4.580;2024-01-16T12:38:11;5.77;;;3.37;;
75261;SDS011;63859;51.064;4.580;2024-01-16T12:40:41;9.33;;;3.70;;
75261;SDS011;63859;51.064;4.580;2024-01-16T12:43:10;6.33;;;3.17;;
75261;SDS011;63859;51.064;4.580;2024-01-16T12:45:36;9.93;;;3.30;;
75261;SDS011;63859;51.064;4.580;2024-01-16T12:48:02;4.63;;;2.77;;
75261;SDS011;63859;51.064;4.580;2024-01-16T12:50:31;7.63;;;3.57;;
75261;SDS011;63859;51.064;4.580;2024-01-16T12:53:07;6.80;;;3.70;;
75261;SDS011;63859;51.064;4.580;2024-01-16T12:55:37;9.70;;;3.37;;
75261;SDS011;63859;51.064;4.580;2024-01-16T12:58:22;7.53;;;3.70;;
75261;SDS011;63859;51.064;4.580;2024-01-16T13:00:50;6.57;;;3.17;;
75261;SDS011;63859;51.064;4.580;2024-01-16T13:05:54;8.13;;;3.37;;
75261;SDS011;63859;51.064;4.580;2024-01-16T13:08:29;8.90;;;3.70;;
75261;SDS011;63859;51.064;4.580;2024-01-16T13:11:02;11.63;;;3.57;;
75261;SDS011;63859;51.064;4.580;2024-01-16T13:13:28;5.97;;;3.20;;
75261;SDS011;63859;51.064;4.580;2024-01-16T13:15:55;8.37;;;3.50;;
75261;SDS011;63859;51.064;4.580;2024-01-16T13:18:22;9.03;;;3.57;;
75261;SDS011;63859;51.064;4.580;2024-01-16T13:20:50;7.97;;;2.80;;
75261;SDS011;63859;51.064;4.580;2024-01-16T13:23:16;6.30;;;3.57;;
75261;SDS011;63859;51.064;4.580;2024-01-16T13:25:42;4.70;;;2.77;;
75261;SDS011;63859;51.064;4.580;2024-01-16T13:28:15;7.07;;;2.97;;
75261;SDS011;63859;51.064;4.580;2024-01-16T13:30:42;9.27;;;3.50;;
75261;SDS011;63859;51.064;4.580;2024-01-16T13:33:08;8.53;;;2.60;;
75261;SDS011;63859;51.064;4.580;2024-01-16T13:35:35;8.57;;;4.07;;
75261;SDS011;63859;51.064;4.580;2024-01-16T13:38:03;10.67;;;3.53;;
75261;SDS011;63859;51.064;4.580;2024-01-16T13:40:29;7.07;;;3.40;;
75261;SDS011;63859;51.064;4.580;2024-01-16T13:42:55;10.67;;;3.03;;
75261;SDS011;63859;51.064;4.580;2024-01-16T13:45:22;9.53;;;3.00;;
75261;SDS011;63859;51.064;4.580;2024-01-16T13:47:48;10.90;;;3.40;;
75261;SDS011;63859;51.064;4.580;2024-01-16T13:50:14;4.73;;;3.33;;
75261;SDS011;63859;51.064;4.580;2024-01-16T13:52:40;9.70;;;3.10;;
75261;SDS011;63859;51.064;4.580;2024-01-16T13:55:06;6.67;;;2.73;;
75261;SDS011;63859;51.064;4.580;2024-01-16T13:57:32;13.03;;;4.00;;
75261;SDS011;63859;51.064;4.580;2024-01-16T14:00:04;4.43;;;2.80;;
75261;SDS011;63859;51.064;4.580;2024-01-16T14:02:32;6.17;;;3.20;;
75261;SDS011;63859;51.064;4.580;2024-01-16T14:04:59;10.37;;;3.10;;
75261;SDS011;63859;51.064;4.580;2024-01-16T14:07:25;6.57;;;3.13;;
75261;SDS011;63859;51.064;4.580;2024-01-16T14:09:51;11.03;;;3.20;;
75261;SDS011;63859;51.064;4.580;2024-01-16T14:12:17;6.83;;;3.50;;
75261;SDS011;63859;51.064;4.580;2024-01-16T14:14:44;5.87;;;3.00;;
75261;SDS011;63859;51.064;4.580;2024-01-16T14:17:10;7.77;;;3.20;;
75261;SDS011;63859;51.064;4.580;2024-01-16T14:19:36;8.13;;;2.20;;
75261;SDS011;63859;51.064;4.580;2024-01-16T14:22:03;6.77;;;2.90;;
75261;SDS011;63859;51.064;4.580;2024-01-16T14:24:29;7.73;;;3.30;;
75261;SDS011;63859;51.064;4.580;2024-01-16T14:26:55;11.27;;;3.47;;
75261;SDS011;63859;51.064;4.580;2024-01-16T14:29:23;9.83;;;3.33;;
75261;SDS011;63859;51.064;4.580;2024-01-16T14:31:50;8.17;;;2.93;;
75261;SDS011;63859;51.064;4.580;2024-01-16T14:34:16;7.93;;;3.63;;
75261;SDS011;63859;51.064;4.580;2024-01-16T14:36:42;6.67;;;3.00;;
75261;SDS011;63859;51.064;4.580;2024-01-16T14:39:08;10.30;;;3.20;;
75261;SDS011;63859;51.064;4.580;2024-01-16T14:41:42;10.27;;;3.57;;
75261;SDS011;63859;51.064;4.580;2024-01-16T14:44:08;8.13;;;3.20;;
75261;SDS011;63859;51.064;4.580;2024-01-16T14:46:35;7.10;;;3.40;;
75261;SDS011;63859;51.064;4.580;2024-01-16T14:49:01;9.03;;;3.50;;
75261;SDS011;63859;51.064;4.580;2024-01-16T14:51:27;12.20;;;3.63;;
75261;SDS011;63859;51.064;4.580;2024-01-16T14:53:53;7.73;;;3.13;;